Time;durP1;ratioP1;P1;durP2;ratioP2;P2;SDS_P1;SDS_P2;PMS_P1;PMS_P2;Temp;Humidity;BMP_temperature;BMP_pressure;BME280_temperature;BME280_humidity;BME280_pressure;Samples;Min_cycle;Max_cycle;Signal;HPM_P1;HPM_P2
2021/08/06 00:02:14;;;;;;;6.75;5.95;;;13.80;99.90;;;;;;4990512;28;20195;-78
2021/08/06 00:04:39;;;;;;;7.25;5.88;;;13.70;99.90;;;;;;4990198;28;20327;-79
2021/08/06 00:07:05;;;;;;;7.85;6.57;;;13.70;99.90;;;;;;4990514;28;20204;-78
2021/08/06 00:09:35;;;;;;;6.60;5.68;;;13.60;99.90;;;;;;4990167;28;20172;-79
2021/08/06 00:12:01;;;;;;;7.63;6.68;;;13.60;99.90;;;;;;4989606;28;20259;-79
2021/08/06 00:14:26;;;;;;;8.40;6.03;;;13.60;99.90;;;;;;4989923;28;20184;-79
2021/08/06 00:16:53;;;;;;;6.50;5.82;;;13.60;99.90;;;;;;4990177;28;20208;-79
2021/08/06 00:19:19;;;;;;;7.55;6.13;;;13.60;99.90;;;;;;4988623;28;20185;-79
2021/08/06 00:21:45;;;;;;;7.88;5.68;;;13.60;99.90;;;;;;4989490;28;20229;-79
2021/08/06 00:24:11;;;;;;;8.45;6.85;;;13.50;99.90;;;;;;4989948;28;20176;-80
2021/08/06 00:26:37;;;;;;;8.57;6.78;;;13.40;99.90;;;;;;4988432;28;20219;-78
2021/08/06 00:29:02;;;;;;;8.43;5.97;;;13.40;99.90;;;;;;4990058;28;20188;-79
2021/08/06 00:31:28;;;;;;;6.82;5.72;;;13.40;99.90;;;;;;4989687;28;20192;-78
2021/08/06 00:33:53;;;;;;;7.25;5.78;;;13.40;99.90;;;;;;4987725;28;20187;-79
2021/08/06 00:36:19;;;;;;;6.40;5.75;;;13.60;99.90;;;;;;4989662;28;20211;-79
2021/08/06 00:38:45;;;;;;;7.22;6.53;;;13.60;99.90;;;;;;4989547;28;20665;-79
2021/08/06 00:41:10;;;;;;;8.65;6.20;;;13.60;99.90;;;;;;4989718;28;20184;-78
2021/08/06 00:43:36;;;;;;;9.88;6.40;;;13.70;99.90;;;;;;4989212;28;20625;-78
2021/08/06 00:46:03;;;;;;;7.35;5.50;;;13.70;99.90;;;;;;4988410;28;20212;-79
2021/08/06 00:48:29;;;;;;;8.35;6.35;;;13.80;99.90;;;;;;4989195;28;20188;-77
2021/08/06 00:50:55;;;;;;;9.70;6.60;;;13.80;99.90;;;;;;4989111;28;20176;-79
2021/08/06 00:53:22;;;;;;;9.77;6.20;;;13.80;99.90;;;;;;4987907;28;20650;-78
2021/08/06 00:55:48;;;;;;;7.22;6.22;;;13.80;99.90;;;;;;4989078;28;20685;-78
2021/08/06 00:58:15;;;;;;;6.95;6.00;;;13.80;99.90;;;;;;4988939;28;20246;-79
2021/08/06 01:00:41;;;;;;;8.57;6.82;;;13.70;99.90;;;;;;4988231;28;20199;-78
2021/08/06 01:03:42;;;;;;;8.68;6.78;;;13.80;99.90;;;;;;4987137;28;20181;-78
2021/08/06 01:06:37;;;;;;;8.07;6.53;;;13.70;99.90;;;;;;4987468;28;20200;-78
2021/08/06 01:09:25;;;;;;;7.40;6.10;;;13.80;99.90;;;;;;4985344;28;20689;-77
2021/08/06 01:11:57;;;;;;;8.38;6.63;;;13.70;99.90;;;;;;5003303;28;20180;-79
2021/08/06 01:14:26;;;;;;;7.93;6.88;;;13.70;99.90;;;;;;4986174;28;20180;-78
2021/08/06 01:16:56;;;;;;;8.73;6.85;;;13.70;99.90;;;;;;4988452;28;20215;-79
2021/08/06 01:19:30;;;;;;;10.23;7.80;;;13.70;99.90;;;;;;4988278;28;20937;-80
2021/08/06 01:22:15;;;;;;;10.43;8.10;;;13.80;99.90;;;;;;4988270;28;20203;-79
2021/08/06 01:24:48;;;;;;;10.10;7.68;;;13.80;99.90;;;;;;4988047;28;20187;-79
2021/08/06 01:27:13;;;;;;;10.07;7.40;;;13.90;99.90;;;;;;4988096;28;20351;-79
2021/08/06 01:29:39;;;;;;;9.27;6.45;;;13.90;99.90;;;;;;4988009;28;20275;-79
2021/08/06 01:32:05;;;;;;;10.15;7.50;;;13.90;99.90;;;;;;4987900;28;20569;-80
2021/08/06 01:34:30;;;;;;;9.20;6.90;;;13.90;99.90;;;;;;4987715;28;20176;-77
2021/08/06 01:36:56;;;;;;;9.25;6.95;;;13.90;99.90;;;;;;4988287;28;20196;-78
2021/08/06 01:39:21;;;;;;;11.63;8.23;;;13.90;99.90;;;;;;4987914;28;20190;-79
2021/08/06 01:42:01;;;;;;;12.65;8.20;;;13.80;99.90;;;;;;4988489;28;20560;-79
2021/08/06 01:44:49;;;;;;;10.98;7.32;;;13.70;99.90;;;;;;4987706;28;20271;-78
2021/08/06 01:47:21;;;;;;;10.40;7.63;;;13.60;99.90;;;;;;4985802;28;20248;-79
2021/08/06 01:50:14;;;;;;;10.05;7.63;;;13.60;99.90;;;;;;4987778;28;20177;-80
2021/08/06 01:52:48;;;;;;;12.73;7.57;;;13.50;99.90;;;;;;4987861;28;20200;-79
2021/08/06 01:55:15;;;;;;;13.00;8.05;;;13.50;99.90;;;;;;4987807;28;20183;-78
2021/08/06 01:57:42;;;;;;;10.07;8.02;;;13.60;99.90;;;;;;4988094;28;20199;-79
2021/08/06 02:00:08;;;;;;;9.05;7.53;;;13.50;99.90;;;;;;4987520;28;20195;-79
2021/08/06 02:02:37;;;;;;;10.52;7.32;;;13.50;99.90;;;;;;4988432;28;20218;-78
2021/08/06 02:05:03;;;;;;;10.25;7.72;;;13.40;99.90;;;;;;4988108;28;20187;-78
2021/08/06 02:07:29;;;;;;;11.50;7.45;;;13.30;99.90;;;;;;5002563;28;20212;-79
2021/08/06 02:09:55;;;;;;;10.02;7.05;;;13.40;99.90;;;;;;4985923;28;20176;-79
2021/08/06 02:12:21;;;;;;;12.77;7.78;;;13.40;99.90;;;;;;4986258;28;20171;-79
2021/08/06 02:14:48;;;;;;;10.57;7.70;;;13.30;99.90;;;;;;4987640;28;20192;-78
2021/08/06 02:17:15;;;;;;;10.25;7.65;;;13.20;99.90;;;;;;4987885;28;20200;-79
2021/08/06 02:19:42;;;;;;;10.80;7.68;;;13.20;99.90;;;;;;4987657;28;20207;-79
2021/08/06 02:22:09;;;;;;;12.05;8.07;;;13.20;99.90;;;;;;4987212;28;20863;-79
2021/08/06 02:24:39;;;;;;;10.10;7.53;;;13.10;99.90;;;;;;4988036;28;20177;-79
2021/08/06 02:27:05;;;;;;;12.75;9.07;;;13.00;99.90;;;;;;4985695;28;20298;-79
2021/08/06 02:29:32;;;;;;;11.55;7.18;;;13.00;99.90;;;;;;4988224;28;20251;-78
2021/08/06 02:31:59;;;;;;;11.85;7.80;;;13.00;99.90;;;;;;4985880;28;20223;-78
2021/08/06 02:34:25;;;;;;;10.98;7.47;;;13.10;99.90;;;;;;4987537;28;20180;-78
2021/08/06 02:36:52;;;;;;;9.30;7.10;;;13.10;99.90;;;;;;4987443;28;20203;-77
2021/08/06 02:39:22;;;;;;;9.95;6.80;;;13.10;99.90;;;;;;4988052;28;20689;-78
2021/08/06 02:41:48;;;;;;;8.70;6.28;;;13.10;99.90;;;;;;4987564;28;20193;-78
2021/08/06 02:44:14;;;;;;;8.50;6.68;;;13.20;99.90;;;;;;4985563;28;20184;-78
2021/08/06 02:46:40;;;;;;;10.32;6.80;;;13.20;99.90;;;;;;4986948;28;20250;-78
2021/08/06 02:49:06;;;;;;;11.27;7.45;;;13.10;99.90;;;;;;4987380;28;20694;-79
2021/08/06 02:51:32;;;;;;;10.70;7.38;;;13.00;99.90;;;;;;5002000;28;20191;-78
2021/08/06 02:53:59;;;;;;;10.65;7.57;;;12.90;99.90;;;;;;4987182;28;20177;-79
2021/08/06 02:56:24;;;;;;;11.32;7.38;;;12.90;99.90;;;;;;4987290;28;20230;-78
2021/08/06 02:58:50;;;;;;;10.65;8.18;;;12.80;99.90;;;;;;4985644;28;20678;-80
2021/08/06 03:01:15;;;;;;;10.48;7.47;;;12.80;99.90;;;;;;4986560;28;20681;-79
2021/08/06 03:03:41;;;;;;;10.70;7.80;;;12.80;99.90;;;;;;4986034;28;20200;-79
2021/08/06 03:06:06;;;;;;;9.63;7.43;;;12.70;99.90;;;;;;4985400;28;20223;-79
2021/08/06 03:08:32;;;;;;;9.95;7.22;;;12.60;99.90;;;;;;4987698;28;20222;-80
2021/08/06 03:10:58;;;;;;;11.57;7.30;;;12.70;99.90;;;;;;4985406;28;20188;-78
2021/08/06 03:13:23;;;;;;;11.35;7.35;;;12.60;99.90;;;;;;4987514;28;20190;-79
2021/08/06 03:15:49;;;;;;;9.73;7.65;;;12.60;99.90;;;;;;4986703;28;20230;-79
2021/08/06 03:18:14;;;;;;;11.85;7.95;;;12.50;99.90;;;;;;4986810;28;20196;-79
2021/08/06 03:20:40;;;;;;;13.57;8.32;;;12.30;99.90;;;;;;4987039;28;20220;-79
2021/08/06 03:23:05;;;;;;;13.13;7.65;;;12.30;99.90;;;;;;4989028;28;20987;-78
2021/08/06 03:25:31;;;;;;;14.52;8.18;;;12.30;99.90;;;;;;4991171;28;20212;-78
2021/08/06 03:27:58;;;;;;;10.23;7.18;;;12.30;99.90;;;;;;4990773;28;20215;-78
2021/08/06 03:30:24;;;;;;;11.75;7.57;;;12.30;99.90;;;;;;5005925;28;20184;-78
2021/08/06 03:32:50;;;;;;;11.93;7.47;;;12.40;99.90;;;;;;4989146;28;20211;-77
2021/08/06 03:35:15;;;;;;;10.48;7.70;;;12.40;99.90;;;;;;4989257;28;20188;-76
2021/08/06 03:37:43;;;;;;;12.40;8.57;;;12.50;99.90;;;;;;4989447;28;20207;-78
2021/08/06 03:40:10;;;;;;;10.65;7.38;;;12.50;99.90;;;;;;5005656;28;20191;-76
2021/08/06 03:42:36;;;;;;;11.70;6.97;;;12.50;99.90;;;;;;5005097;28;20684;-78
2021/08/06 03:45:01;;;;;;;11.05;7.60;;;12.60;99.90;;;;;;4989191;28;20216;-76
2021/08/06 03:47:27;;;;;;;11.00;7.75;;;12.60;99.90;;;;;;4988578;28;20829;-77
2021/08/06 03:49:53;;;;;;;10.98;6.93;;;12.60;99.90;;;;;;4990638;28;20215;-77
2021/08/06 03:52:18;;;;;;;9.23;6.90;;;12.60;99.90;;;;;;4989992;28;20180;-77
2021/08/06 03:54:44;;;;;;;9.40;7.28;;;12.70;99.90;;;;;;4991315;28;20191;-77
2021/08/06 03:57:09;;;;;;;8.57;6.82;;;12.70;99.90;;;;;;4989841;28;20585;-78
2021/08/06 03:59:35;;;;;;;8.35;5.90;;;12.80;99.90;;;;;;4989837;28;20611;-79
2021/08/06 04:02:01;;;;;;;9.70;7.20;;;12.90;99.90;;;;;;4990544;28;20181;-78
2021/08/06 04:04:26;;;;;;;8.45;7.05;;;13.00;99.90;;;;;;4990249;28;20368;-79
2021/08/06 04:06:52;;;;;;;9.35;7.18;;;13.00;99.90;;;;;;4989625;28;20212;-79
2021/08/06 04:09:17;;;;;;;10.93;7.50;;;13.00;99.90;;;;;;4990386;28;20504;-79
2021/08/06 04:11:43;;;;;;;8.65;6.65;;;13.00;99.90;;;;;;4989423;28;20185;-78
2021/08/06 04:14:09;;;;;;;10.43;7.05;;;13.00;99.90;;;;;;4989020;28;20181;-77
2021/08/06 04:16:35;;;;;;;9.75;7.47;;;13.20;99.90;;;;;;4987904;28;20305;-78
2021/08/06 04:19:01;;;;;;;8.52;6.35;;;13.20;99.90;;;;;;4989114;28;20657;-79
2021/08/06 04:21:26;;;;;;;10.55;6.93;;;13.30;99.90;;;;;;4989633;28;20189;-79
2021/08/06 04:23:52;;;;;;;10.43;6.78;;;13.30;99.90;;;;;;4989472;28;20447;-78
2021/08/06 04:26:18;;;;;;;8.82;6.78;;;13.30;99.90;;;;;;4989471;28;20234;-78
2021/08/06 04:28:44;;;;;;;9.02;6.65;;;13.40;99.90;;;;;;4989807;28;20282;-78
2021/08/06 04:31:09;;;;;;;8.68;6.72;;;13.40;99.90;;;;;;4987870;28;20313;-79
2021/08/06 04:33:35;;;;;;;7.90;6.25;;;13.50;99.90;;;;;;4989259;28;20177;-78
2021/08/06 04:36:01;;;;;;;8.98;7.10;;;13.60;99.90;;;;;;4989170;28;20184;-78
2021/08/06 04:38:26;;;;;;;9.43;6.93;;;13.60;99.90;;;;;;4989329;28;20195;-79
2021/08/06 04:40:52;;;;;;;9.55;6.88;;;13.50;99.90;;;;;;4989542;28;20243;-78
2021/08/06 04:43:21;;;;;;;11.05;8.00;;;13.50;99.90;;;;;;4989096;28;20195;-78
2021/08/06 04:45:48;;;;;;;9.20;6.85;;;13.60;99.90;;;;;;4989194;28;20239;-79
2021/08/06 04:48:17;;;;;;;9.02;6.88;;;13.80;99.90;;;;;;4989224;28;20208;-79
2021/08/06 04:50:43;;;;;;;10.05;7.72;;;13.80;99.90;;;;;;4989776;28;20177;-79
2021/08/06 04:53:08;;;;;;;10.13;7.68;;;13.90;99.90;;;;;;4989569;28;20204;-78
2021/08/06 04:55:34;;;;;;;8.18;7.32;;;14.00;99.90;;;;;;4989191;28;20195;-78
2021/08/06 04:58:00;;;;;;;10.02;7.38;;;14.00;99.90;;;;;;4989310;28;20702;-78
2021/08/06 05:00:26;;;;;;;10.15;8.50;;;14.10;99.90;;;;;;4987985;28;20312;-79
2021/08/06 05:02:51;;;;;;;9.50;7.13;;;14.20;99.90;;;;;;4989348;28;20180;-78
2021/08/06 05:05:17;;;;;;;10.48;8.50;;;14.40;99.90;;;;;;4988650;28;20234;-79
2021/08/06 05:07:49;;;;;;;11.10;8.10;;;14.90;99.90;;;;;;4989051;28;20309;-78
2021/08/06 05:10:16;;;;;;;7.95;6.60;;;15.50;99.90;;;;;;4988696;28;20195;-78
2021/08/06 05:12:42;;;;;;;7.97;6.40;;;16.10;99.90;;;;;;4988509;28;20194;-78
2021/08/06 05:15:08;;;;;;;7.63;6.13;;;16.90;99.90;;;;;;4988352;28;20764;-79
2021/08/06 05:17:33;;;;;;;8.15;6.03;;;17.80;99.90;;;;;;4987137;28;20650;-78
2021/08/06 05:19:59;;;;;;;8.27;5.57;;;18.70;99.90;;;;;;4988562;28;20207;-79
2021/08/06 05:22:24;;;;;;;7.05;5.43;;;19.50;99.90;;;;;;4988684;28;20192;-78
2021/08/06 05:24:50;;;;;;;6.80;4.90;;;19.70;99.90;;;;;;4986850;28;20234;-78
2021/08/06 05:27:15;;;;;;;6.90;5.38;;;20.10;99.90;;;;;;4988574;28;20247;-78
2021/08/06 05:29:41;;;;;;;9.05;5.03;;;20.50;99.90;;;;;;4987360;28;20195;-77
2021/08/06 05:32:07;;;;;;;6.50;5.07;;;20.80;99.90;;;;;;4988443;28;20224;-78
2021/08/06 05:34:32;;;;;;;6.80;5.60;;;20.70;99.90;;;;;;4987890;28;20176;-79
2021/08/06 05:36:58;;;;;;;8.43;5.82;;;20.70;99.90;;;;;;4986945;28;20196;-79
2021/08/06 05:39:23;;;;;;;5.65;4.80;;;20.50;99.90;;;;;;4988367;28;20334;-79
2021/08/06 05:41:49;;;;;;;7.30;5.50;;;20.80;99.90;;;;;;4986976;28;20188;-79
2021/08/06 05:44:14;;;;;;;5.93;4.90;;;20.70;99.90;;;;;;4987474;28;20188;-78
2021/08/06 05:46:40;;;;;;;6.97;4.95;;;21.00;99.90;;;;;;4988244;28;20212;-78
2021/08/06 05:49:05;;;;;;;16.50;5.72;;;21.40;99.90;;;;;;4988601;28;20187;-78
2021/08/06 05:51:31;;;;;;;7.50;5.30;;;21.70;99.90;;;;;;4988016;28;20214;-78
2021/08/06 05:53:56;;;;;;;7.30;5.15;;;22.00;99.90;;;;;;4988604;28;20176;-78
2021/08/06 05:56:22;;;;;;;6.93;5.63;;;21.80;99.90;;;;;;4987962;28;20698;-78
2021/08/06 05:58:48;;;;;;;7.28;5.30;;;21.70;99.90;;;;;;4986886;28;20176;-79
2021/08/06 06:01:13;;;;;;;7.78;5.35;;;21.70;99.90;;;;;;5002563;28;20184;-78
2021/08/06 06:03:39;;;;;;;6.30;4.72;;;21.80;99.90;;;;;;4988070;28;20310;-79
2021/08/06 06:06:04;;;;;;;6.72;5.18;;;22.20;99.90;;;;;;4986459;28;20184;-78
2021/08/06 06:08:31;;;;;;;7.60;5.65;;;22.00;99.90;;;;;;4985352;28;20339;-75
2021/08/06 06:10:57;;;;;;;7.50;5.50;;;22.40;99.90;;;;;;4984271;28;20180;-75
2021/08/06 06:13:23;;;;;;;8.00;5.60;;;22.00;99.90;;;;;;4984188;28;20717;-75
2021/08/06 06:15:49;;;;;;;7.35;5.45;;;21.90;99.90;;;;;;4984479;28;20572;-75
2021/08/06 06:18:15;;;;;;;6.78;5.28;;;22.00;99.90;;;;;;4984203;28;20180;-75
2021/08/06 06:20:41;;;;;;;6.28;5.30;;;22.00;99.90;;;;;;4984838;28;20351;-74
2021/08/06 06:23:06;;;;;;;9.70;5.88;;;21.80;99.90;;;;;;4984025;28;20694;-75
2021/08/06 06:25:32;;;;;;;8.65;5.82;;;21.70;99.90;;;;;;4984806;28;20410;-75
2021/08/06 06:28:03;;;;;;;8.85;6.53;;;21.70;99.90;;;;;;4984111;28;20569;-75
2021/08/06 06:30:31;;;;;;;8.65;6.43;;;22.20;99.90;;;;;;4984529;28;20184;-75
2021/08/06 06:32:58;;;;;;;11.60;6.38;;;22.20;99.90;;;;;;4982591;28;20322;-75
2021/08/06 06:35:24;;;;;;;9.07;6.28;;;22.40;99.90;;;;;;4984761;28;21168;-75
2021/08/06 06:37:51;;;;;;;7.60;5.55;;;22.60;99.90;;;;;;4983915;28;20200;-75
2021/08/06 06:40:19;;;;;;;7.85;5.47;;;22.50;99.90;;;;;;4984129;28;20184;-75
2021/08/06 06:42:45;;;;;;;8.18;5.40;;;22.40;99.90;;;;;;4983476;28;20185;-75
2021/08/06 06:45:12;;;;;;;7.40;5.63;;;22.10;99.90;;;;;;4984568;28;20266;-75
2021/08/06 06:47:40;;;;;;;5.88;5.20;;;21.60;99.90;;;;;;4984289;28;20341;-75
2021/08/06 06:50:09;;;;;;;7.20;5.15;;;21.10;99.90;;;;;;4984175;28;20334;-75
2021/08/06 06:52:38;;;;;;;6.50;4.65;;;20.80;99.90;;;;;;4985828;28;20180;-77
2021/08/06 06:55:05;;;;;;;7.20;5.38;;;20.80;99.90;;;;;;4987744;28;20184;-78
2021/08/06 06:57:31;;;;;;;5.80;4.80;;;20.40;99.90;;;;;;4992122;28;20235;-77
2021/08/06 06:59:57;;;;;;;6.07;4.75;;;20.30;99.90;;;;;;4990173;28;20208;-78
2021/08/06 07:02:23;;;;;;;8.45;5.95;;;20.20;99.90;;;;;;4988339;28;20825;-76
2021/08/06 07:04:49;;;;;;;6.57;5.10;;;20.20;99.90;;;;;;4988967;28;20188;-77
2021/08/06 07:07:15;;;;;;;6.15;5.50;;;20.40;99.90;;;;;;4989048;28;20234;-76
2021/08/06 07:09:41;;;;;;;5.65;4.68;;;20.40;99.90;;;;;;4987634;28;20279;-77
2021/08/06 07:12:07;;;;;;;5.72;4.55;;;20.50;99.90;;;;;;4988910;28;20176;-77
2021/08/06 07:14:34;;;;;;;6.57;5.47;;;20.50;99.90;;;;;;4987191;28;20286;-76
2021/08/06 07:16:59;;;;;;;6.75;5.25;;;20.60;99.90;;;;;;4988790;28;21203;-74
2021/08/06 07:19:25;;;;;;;5.38;4.70;;;20.60;99.90;;;;;;4989253;28;20843;-76
2021/08/06 07:21:51;;;;;;;5.40;4.32;;;20.60;99.90;;;;;;4990729;28;20791;-78
2021/08/06 07:24:16;;;;;;;5.97;4.38;;;20.70;99.90;;;;;;4989918;28;20712;-76
2021/08/06 07:26:42;;;;;;;5.10;4.20;;;20.70;99.90;;;;;;4990486;28;20230;-78
2021/08/06 07:29:08;;;;;;;5.90;4.90;;;20.80;99.90;;;;;;4989950;28;20177;-78
2021/08/06 07:31:33;;;;;;;4.93;4.15;;;20.80;99.90;;;;;;4989863;28;20204;-75
2021/08/06 07:33:59;;;;;;;6.03;4.50;;;20.90;99.90;;;;;;4988339;28;20176;-78
2021/08/06 07:36:25;;;;;;;6.10;3.90;;;21.00;99.90;;;;;;4989341;28;20415;-78
2021/08/06 07:38:51;;;;;;;4.82;4.10;;;21.00;99.90;;;;;;4990703;28;20177;-76
2021/08/06 07:41:17;;;;;;;5.10;4.00;;;21.10;99.90;;;;;;4990599;28;20183;-78
2021/08/06 07:43:42;;;;;;;4.80;3.80;;;21.40;99.90;;;;;;5004839;28;20280;-75
2021/08/06 07:46:08;;;;;;;4.70;3.83;;;21.70;99.90;;;;;;4990561;28;20314;-78
2021/08/06 07:48:34;;;;;;;4.85;4.35;;;22.10;99.90;;;;;;4990171;28;20220;-78
2021/08/06 07:50:59;;;;;;;4.82;4.18;;;22.10;99.90;;;;;;5005538;28;20188;-77
2021/08/06 07:53:25;;;;;;;10.82;4.93;;;21.80;99.90;;;;;;4990292;28;20204;-79
2021/08/06 07:55:52;;;;;;;6.00;5.03;;;21.80;99.90;;;;;;4989984;28;20654;-76
2021/08/06 07:58:18;;;;;;;5.72;4.90;;;21.80;99.90;;;;;;4990190;28;20592;-78
2021/08/06 08:00:44;;;;;;;6.18;4.60;;;21.70;99.90;;;;;;4990073;28;20196;-79
2021/08/06 08:03:09;;;;;;;5.03;4.03;;;21.60;99.90;;;;;;4989206;28;20184;-78
2021/08/06 08:05:35;;;;;;;5.53;4.30;;;21.80;99.90;;;;;;4988205;28;20199;-76
2021/08/06 08:08:01;;;;;;;5.82;4.85;;;21.80;99.90;;;;;;4988291;28;20220;-76
2021/08/06 08:10:27;;;;;;;4.90;3.95;;;22.00;99.90;;;;;;4989387;28;20867;-79
2021/08/06 08:12:53;;;;;;;5.78;4.13;;;22.10;99.90;;;;;;4988588;28;20271;-77
2021/08/06 08:15:19;;;;;;;6.38;3.92;;;22.00;99.90;;;;;;4987068;28;20680;-77
2021/08/06 08:17:44;;;;;;;5.57;4.00;;;21.90;99.90;;;;;;4988869;28;20220;-78
2021/08/06 08:20:10;;;;;;;4.50;3.80;;;22.00;99.90;;;;;;4988187;28;20246;-76
2021/08/06 08:22:36;;;;;;;3.65;3.28;;;22.20;99.90;;;;;;4987501;28;20627;-76
2021/08/06 08:25:03;;;;;;;3.75;3.33;;;22.60;99.90;;;;;;5002670;28;20195;-76
2021/08/06 08:27:29;;;;;;;4.95;3.83;;;22.60;99.90;;;;;;4988914;28;20690;-74
2021/08/06 08:29:54;;;;;;;4.78;3.30;;;22.80;99.90;;;;;;4986854;28;20188;-79
2021/08/06 08:32:20;;;;;;;3.25;2.85;;;22.90;99.90;;;;;;4987551;28;20658;-77
2021/08/06 08:34:46;;;;;;;3.13;2.65;;;22.90;99.90;;;;;;4986536;28;20271;-77
2021/08/06 08:37:13;;;;;;;2.63;2.33;;;22.90;99.90;;;;;;5002290;28;20242;-78
2021/08/06 08:39:39;;;;;;;2.80;2.47;;;22.90;99.90;;;;;;4987312;28;20184;-77
2021/08/06 08:42:05;;;;;;;4.05;2.90;;;23.20;99.90;;;;;;4986128;28;20716;-76
2021/08/06 08:44:36;;;;;;;2.88;2.47;;;24.00;99.90;;;;;;4987321;28;20241;-76
2021/08/06 08:47:04;;;;;;;3.33;2.83;;;24.50;99.90;;;;;;4988721;28;20207;-77
2021/08/06 08:49:32;;;;;;;3.25;2.55;;;24.50;99.90;;;;;;4987314;28;20180;-74
2021/08/06 08:51:58;;;;;;;2.30;2.10;;;24.60;99.90;;;;;;4987361;28;20206;-79
2021/08/06 08:54:24;;;;;;;2.22;1.90;;;24.70;99.90;;;;;;4986157;28;20188;-75
2021/08/06 08:56:50;;;;;;;2.50;2.30;;;24.70;99.90;;;;;;4988710;28;20694;-77
2021/08/06 08:59:16;;;;;;;3.78;2.80;;;24.80;99.90;;;;;;4988438;28;20188;-75
2021/08/06 09:01:42;;;;;;;3.22;2.92;;;24.70;99.90;;;;;;4986922;28;20199;-75
2021/08/06 09:04:27;;;;;;;5.47;3.67;;;24.60;99.90;;;;;;4987868;28;20275;-77
2021/08/06 09:06:53;;;;;;;3.75;3.10;;;24.40;99.90;;;;;;4987836;28;20637;-77
2021/08/06 09:09:22;;;;;;;2.90;2.60;;;24.30;99.90;;;;;;4988658;28;20179;-78
2021/08/06 09:12:01;;;;;;;3.80;2.67;;;24.10;99.90;;;;;;4988226;28;20177;-77
2021/08/06 09:14:29;;;;;;;2.80;2.60;;;24.20;99.90;;;;;;4987599;28;20176;-76
2021/08/06 09:17:09;;;;;;;4.43;2.55;;;24.20;99.90;;;;;;4985929;28;20200;-76
2021/08/06 09:19:39;;;;;;;3.17;2.55;;;24.20;99.90;;;;;;4987209;28;20180;-75
2021/08/06 09:22:19;;;;;;;2.25;2.00;;;24.70;99.90;;;;;;4987254;28;20259;-77
2021/08/06 09:25:17;;;;;;;1.45;1.35;;;24.90;99.90;;;;;;4986603;28;20643;-77
2021/08/06 09:28:00;;;;;;;5.03;2.67;;;25.20;99.90;;;;;;4984978;28;21241;-77
2021/08/06 09:30:39;;;;;;;3.03;2.25;;;25.30;99.90;;;;;;4986592;28;20187;-76
2021/08/06 09:33:08;;;;;;;18.10;6.55;;;25.30;99.90;;;;;;4987126;28;20287;-76
2021/08/06 09:35:34;;;;;;;3.85;1.90;;;25.20;99.90;;;;;;4986890;28;20592;-76
2021/08/06 09:38:01;;;;;;;1.67;1.35;;;25.60;99.90;;;;;;4986415;28;20210;-75
2021/08/06 09:40:30;;;;;;;2.10;1.25;;;26.00;99.90;;;;;;4986853;28;20184;-75
2021/08/06 09:42:59;;;;;;;1.30;1.20;;;26.00;99.90;;;;;;4986414;28;20176;-77
2021/08/06 09:45:35;;;;;;;1.45;1.35;;;26.20;99.90;;;;;;4986431;28;20184;-75
2021/08/06 09:48:03;;;;;;;1.10;1.00;;;25.50;99.90;;;;;;4986975;28;20344;-77
2021/08/06 09:50:46;;;;;;;1.13;1.02;;;25.20;99.90;;;;;;4986337;28;20361;-75
2021/08/06 09:53:12;;;;;;;0.93;0.93;;;25.10;99.90;;;;;;4986285;28;20178;-77
2021/08/06 09:55:43;;;;;;;0.93;0.93;;;25.30;99.90;;;;;;4985673;28;20180;-77
2021/08/06 09:58:23;;;;;;;1.92;1.23;;;25.50;99.90;;;;;;4986049;28;20275;-76
2021/08/06 10:00:50;;;;;;;1.33;1.13;;;25.70;99.90;;;;;;4984934;28;20184;-76
2021/08/06 10:03:34;;;;;;;1.33;1.23;;;25.80;99.90;;;;;;4984866;28;20188;-76
2021/08/06 10:06:12;;;;;;;0.95;0.90;;;26.00;99.90;;;;;;4985130;28;20184;-78
2021/08/06 10:08:38;;;;;;;1.20;1.10;;;25.80;99.90;;;;;;4986253;28;20207;-78
2021/08/06 10:11:04;;;;;;;1.40;1.30;;;25.90;99.90;;;;;;4987510;28;20184;-75
2021/08/06 10:13:30;;;;;;;1.25;1.15;;;26.10;99.90;;;;;;4987113;28;20176;-77
2021/08/06 10:15:56;;;;;;;1.00;1.00;;;26.30;99.90;;;;;;4987890;28;20176;-76
2021/08/06 10:18:22;;;;;;;1.40;1.17;;;26.30;99.90;;;;;;4988156;28;20218;-79
2021/08/06 10:20:49;;;;;;;1.30;1.20;;;26.30;99.90;;;;;;4987693;28;20220;-77
2021/08/06 10:23:15;;;;;;;1.27;1.10;;;26.30;99.90;;;;;;4988601;28;20195;-76
2021/08/06 10:25:40;;;;;;;1.25;1.13;;;26.20;99.90;;;;;;4988171;28;20187;-79
2021/08/06 10:28:07;;;;;;;1.88;1.20;;;26.10;99.90;;;;;;4987812;28;20460;-78
2021/08/06 10:30:35;;;;;;;1.40;1.30;;;25.90;99.90;;;;;;4987951;28;20577;-78
2021/08/06 10:33:07;;;;;;;1.13;1.02;;;25.70;99.90;;;;;;4991931;28;20591;-77
2021/08/06 10:36:02;;;;;;;1.05;1.05;;;25.50;99.90;;;;;;4991859;28;20180;-77
2021/08/06 10:38:39;;;;;;;1.20;1.10;;;25.40;99.90;;;;;;4990511;28;20180;-77
2021/08/06 10:41:12;;;;;;;1.58;1.35;;;25.30;99.90;;;;;;4990765;28;20650;-74
2021/08/06 10:43:41;;;;;;;3.67;1.48;;;25.00;99.90;;;;;;4988448;28;20176;-76
2021/08/06 10:46:09;;;;;;;2.47;1.50;;;24.70;99.90;;;;;;4987530;28;20196;-78
2021/08/06 10:48:41;;;;;;;1.65;1.42;;;24.50;99.90;;;;;;4988046;28;20211;-77
2021/08/06 10:51:20;;;;;;;1.30;1.20;;;24.40;99.90;;;;;;4988379;28;20180;-75
2021/08/06 10:53:55;;;;;;;1.50;1.40;;;24.40;99.90;;;;;;4989782;28;20717;-75
2021/08/06 10:56:27;;;;;;;1.45;1.35;;;24.40;99.90;;;;;;4990165;28;20289;-77
2021/08/06 10:58:52;;;;;;;0.90;0.90;;;24.50;99.90;;;;;;4989978;28;20176;-77
2021/08/06 11:01:28;;;;;;;1.38;1.27;;;24.80;99.90;;;;;;4989486;28;20542;-77
2021/08/06 11:04:04;;;;;;;1.42;1.30;;;25.20;99.90;;;;;;5005209;28;20188;-75
2021/08/06 11:06:34;;;;;;;1.30;1.20;;;25.50;99.90;;;;;;4989226;28;20605;-79
2021/08/06 11:09:04;;;;;;;1.30;1.20;;;25.20;99.90;;;;;;4988907;28;20184;-76
2021/08/06 11:11:56;;;;;;;1.27;1.17;;;25.40;99.90;;;;;;4989855;28;20312;-77
2021/08/06 11:14:28;;;;;;;1.30;1.20;;;25.10;99.90;;;;;;4990524;28;20521;-77
2021/08/06 11:17:09;;;;;;;1.40;1.30;;;25.10;99.90;;;;;;4989458;28;20200;-76
2021/08/06 11:19:45;;;;;;;1.85;1.15;;;25.20;99.90;;;;;;4990634;28;20180;-78
2021/08/06 11:22:25;;;;;;;1.60;1.38;;;25.20;99.90;;;;;;4990862;28;20662;-78
2021/08/06 11:25:21;;;;;;;1.10;1.00;;;24.80;99.90;;;;;;4989849;28;20557;-78
2021/08/06 11:27:52;;;;;;;1.42;1.23;;;25.10;99.90;;;;;;4989587;28;20212;-76
2021/08/06 11:30:21;;;;;;;1.10;0.93;;;25.20;99.90;;;;;;4990116;28;20180;-78
2021/08/06 11:32:51;;;;;;;1.05;1.00;;;25.20;99.90;;;;;;4989905;28;20207;-77
2021/08/06 11:35:19;;;;;;;1.05;0.90;;;25.60;99.90;;;;;;4989035;28;20247;-76
2021/08/06 11:38:05;;;;;;;1.58;1.30;;;25.80;99.90;;;;;;4989481;28;20200;-77
2021/08/06 11:40:35;;;;;;;1.25;1.15;;;25.70;99.90;;;;;;4988009;28;20685;-78
2021/08/06 11:43:25;;;;;;;1.30;1.20;;;25.10;99.90;;;;;;4988766;28;20247;-79
2021/08/06 11:45:52;;;;;;;1.00;0.90;;;24.40;99.90;;;;;;4988659;28;20227;-78
2021/08/06 11:48:19;;;;;;;1.20;1.10;;;24.50;99.90;;;;;;4988608;28;20200;-80
2021/08/06 11:50:46;;;;;;;1.17;1.08;;;24.50;99.90;;;;;;4989767;28;20654;-75
2021/08/06 11:53:23;;;;;;;1.30;1.20;;;24.60;99.90;;;;;;4987733;28;20181;-78
2021/08/06 11:55:50;;;;;;;1.25;1.08;;;24.70;99.90;;;;;;4988713;28;20172;-76
2021/08/06 11:58:28;;;;;;;1.10;1.00;;;24.70;99.90;;;;;;4987351;28;20188;-76
2021/08/06 12:00:54;;;;;;;0.90;0.90;;;24.70;99.90;;;;;;4989338;28;20188;-76
2021/08/06 12:03:19;;;;;;;1.42;1.05;;;24.80;99.90;;;;;;4990339;28;20188;-77
2021/08/06 12:05:47;;;;;;;1.23;1.13;;;24.80;99.90;;;;;;4989342;28;20191;-77
2021/08/06 12:08:15;;;;;;;1.20;1.05;;;24.90;99.90;;;;;;4990000;28;20208;-78
2021/08/06 12:10:42;;;;;;;4.00;1.70;;;24.70;99.90;;;;;;4988197;28;20199;-78
2021/08/06 12:13:13;;;;;;;1.05;1.00;;;24.80;99.90;;;;;;4989852;28;20188;-78
2021/08/06 12:15:39;;;;;;;1.20;1.10;;;24.80;99.90;;;;;;4988907;28;20728;-78
2021/08/06 12:18:20;;;;;;;1.30;1.20;;;24.90;99.90;;;;;;4989829;28;20212;-76
2021/08/06 12:21:08;;;;;;;1.70;1.20;;;25.00;99.90;;;;;;5005280;28;20331;-76
2021/08/06 12:23:36;;;;;;;4.28;1.48;;;24.90;99.90;;;;;;4989433;28;20188;-82
2021/08/06 12:26:15;;;;;;;1.23;1.00;;;25.00;99.90;;;;;;4984134;28;20193;-76
2021/08/06 12:28:43;;;;;;;0.93;0.93;;;24.90;99.90;;;;;;4985876;28;20295;-77
2021/08/06 12:31:14;;;;;;;0.77;0.77;;;24.60;99.90;;;;;;4986034;28;20659;-77
2021/08/06 12:33:42;;;;;;;0.60;0.60;;;24.20;99.90;;;;;;4986602;28;20210;-83
2021/08/06 12:36:25;;;;;;;1.30;0.50;;;23.50;99.90;;;;;;4984036;28;20181;-75
2021/08/06 12:38:51;;;;;;;1.98;0.47;;;22.40;99.90;;;;;;4984711;28;20215;-76
2021/08/06 12:41:31;;;;;;;1.13;0.57;;;21.70;99.90;;;;;;4984697;28;20231;-75
2021/08/06 12:44:21;;;;;;;0.50;0.50;;;21.10;99.90;;;;;;4984424;28;20180;-74
2021/08/06 12:47:15;;;;;;;0.40;0.40;;;21.10;99.90;;;;;;4984453;28;20203;-76
2021/08/06 12:49:44;;;;;;;0.55;0.43;;;21.30;99.90;;;;;;4984625;28;20188;-75
2021/08/06 12:52:16;;;;;;;0.50;0.50;;;21.40;99.90;;;;;;4984607;28;20570;-75
2021/08/06 12:54:45;;;;;;;0.40;0.40;;;21.50;99.90;;;;;;4986129;28;20188;-73